Station Historical Data
Daily Summary for February 14, 2017 Units:  Both    English   Metric
« Previous Day
Next Day »
Daily Weekly Monthly Yearly Custom
  High: Low: Average:
Temperature: 42.0 °F /  5.6 °C 23.1 °F /  -4.9 °C 33.2 °F /  0.7 °C
Dew Point: 32.8 °F /  0.4 °C 19.1 °F /  -7.2 °C 26.2 °F /  -3.2 °C
Humidity: 87% 55% 76%
Wind Speed: 21.0mph /  33.8km/h - 5.5mph /  8.9km/h
Wind Gust: 31.0mph /  49.9km/h - -
Wind- - SW
Pressure: 30.04 in /  1017.2 hPa 29.53 in /  999.9 hPa -
Precipitation: 0.00 in /  0 mm    
Historical Graphs
 
 
Tabular Data for February 14, 2017
Time Temperature Dew Point Pressure Wind Wind Speed Wind Gust Humidity Rainfall Rate (Hourly)
00:04 23.5 °F /  -4.7 °C 19.1 °F /  -7.2 °C 30.04in /  1017.2hPa Calm   1.0mph /  1.6km/h 83% 0.00in /  0mm
00:09 23.6 °F /  -4.7 °C 19.2 °F /  -7.1 °C 30.03in /  1016.8hPa Calm     83% 0.00in /  0mm
00:14 23.7 °F /  -4.6 °C 19.6 °F /  -6.9 °C 30.03in /  1016.8hPa Calm     84% 0.00in /  0mm
00:19 23.9 °F /  -4.5 °C 19.8 °F /  -6.8 °C 30.02in /  1016.5hPa Calm   2.0mph /  3.2km/h 84% 0.00in /  0mm
00:24 24.7 °F /  -4.1 °C 20.8 °F /  -6.2 °C 30.02in /  1016.5hPa SSW 1.0mph /  1.6km/h 4.0mph /  6.4km/h 85% 0.00in /  0mm
00:29 25.6 °F /  -3.6 °C 22.0 °F /  -5.6 °C 30.02in /  1016.5hPa SSW 2.0mph /  3.2km/h 4.0mph /  6.4km/h 86% 0.00in /  0mm
00:34 26.6 °F /  -3 °C 23.0 °F /  -5 °C 30.01in /  1016.1hPa SW 2.0mph /  3.2km/h 5.0mph /  8km/h 86% 0.00in /  0mm
00:39 27.0 °F /  -2.8 °C 23.1 °F /  -4.9 °C 30.01in /  1016.1hPa SSW 3.0mph /  4.8km/h 5.0mph /  8km/h 85% 0.00in /  0mm
00:44 27.1 °F /  -2.7 °C 23.2 °F /  -4.9 °C 30.01in /  1016.1hPa SSW 1.0mph /  1.6km/h 5.0mph /  8km/h 85% 0.00in /  0mm
00:49 26.9 °F /  -2.8 °C 22.7 °F /  -5.2 °C 30.00in /  1015.8hPa SSW 4.0mph /  6.4km/h 4.0mph /  6.4km/h 84% 0.00in /  0mm
00:54 26.8 °F /  -2.9 °C 22.6 °F /  -5.2 °C 30.00in /  1015.8hPa SSW 3.0mph /  4.8km/h 5.0mph /  8km/h 84% 0.00in /  0mm
00:59 26.6 °F /  -3 °C 22.4 °F /  -5.3 °C 30.00in /  1015.8hPa SSW 3.0mph /  4.8km/h 5.0mph /  8km/h 84% 0.00in /  0mm
01:04 26.3 °F /  -3.2 °C 22.1 °F /  -5.5 °C 30.00in /  1015.8hPa South 2.0mph /  3.2km/h 5.0mph /  8km/h 84% 0.00in /  0mm
01:09 26.0 °F /  -3.3 °C 21.8 °F /  -5.7 °C 30.00in /  1015.8hPa South 2.0mph /  3.2km/h 6.0mph /  9.7km/h 84% 0.00in /  0mm
01:14 25.8 °F /  -3.4 °C 21.6 °F /  -5.8 °C 30.00in /  1015.8hPa SSW 1.0mph /  1.6km/h 5.0mph /  8km/h 84% 0.00in /  0mm
01:19 25.6 °F /  -3.6 °C 21.4 °F /  -5.9 °C 30.00in /  1015.8hPa South 1.0mph /  1.6km/h 4.0mph /  6.4km/h 84% 0.00in /  0mm
01:24 25.4 °F /  -3.7 °C 21.2 °F /  -6 °C 30.00in /  1015.8hPa SSW 2.0mph /  3.2km/h 4.0mph /  6.4km/h 84% 0.00in /  0mm
01:29 25.3 °F /  -3.7 °C 21.1 °F /  -6.1 °C 29.99in /  1015.5hPa South 2.0mph /  3.2km/h 4.0mph /  6.4km/h 84% 0.00in /  0mm
01:34 25.1 °F /  -3.8 °C 20.9 °F /  -6.2 °C 29.99in /  1015.5hPa SSW 2.0mph /  3.2km/h 4.0mph /  6.4km/h 84% 0.00in /  0mm
01:39 25.0 °F /  -3.9 °C 20.8 °F /  -6.2 °C 29.99in /  1015.5hPa SSW 2.0mph /  3.2km/h 3.0mph /  4.8km/h 84% 0.00in /  0mm
01:44 24.8 °F /  -4 °C 20.7 °F /  -6.3 °C 29.99in /  1015.5hPa SSW 1.0mph /  1.6km/h 2.0mph /  3.2km/h 84% 0.00in /  0mm
01:49 24.7 °F /  -4.1 °C 20.8 °F /  -6.2 °C 29.99in /  1015.5hPa South 2.0mph /  3.2km/h 4.0mph /  6.4km/h 85% 0.00in /  0mm
01:54 24.6 °F /  -4.1 °C 20.7 °F /  -6.3 °C 29.99in /  1015.5hPa South 1.0mph /  1.6km/h 3.0mph /  4.8km/h 85% 0.00in /  0mm
01:59 24.6 °F /  -4.1 °C 20.7 °F /  -6.3 °C 29.98in /  1015.1hPa South 2.0mph /  3.2km/h 4.0mph /  6.4km/h 85% 0.00in /  0mm
02:04 24.6 °F /  -4.1 °C 20.7 °F /  -6.3 °C 29.98in /  1015.1hPa South 2.0mph /  3.2km/h 4.0mph /  6.4km/h 85% 0.00in /  0mm
02:09 24.7 °F /  -4.1 °C 20.8 °F /  -6.2 °C 29.98in /  1015.1hPa South 2.0mph /  3.2km/h 4.0mph /  6.4km/h 85% 0.00in /  0mm
02:14 24.7 °F /  -4.1 °C 20.8 °F /  -6.2 °C 29.98in /  1015.1hPa South 2.0mph /  3.2km/h 4.0mph /  6.4km/h 85% 0.00in /  0mm
02:19 24.6 °F /  -4.1 °C 20.7 °F /  -6.3 °C 29.97in /  1014.8hPa South 2.0mph /  3.2km/h 4.0mph /  6.4km/h 85% 0.00in /  0mm
02:24 24.6 °F /  -4.1 °C 20.7 °F /  -6.3 °C 29.97in /  1014.8hPa SSW 5.0mph /  8km/h 5.0mph /  8km/h 85% 0.00in /  0mm
02:29 24.7 °F /  -4.1 °C 20.6 °F /  -6.3 °C 29.97in /  1014.8hPa SSW 3.0mph /  4.8km/h 6.0mph /  9.7km/h 84% 0.00in /  0mm
02:34 24.8 °F /  -4 °C 20.7 °F /  -6.3 °C 29.97in /  1014.8hPa SSW 3.0mph /  4.8km/h 6.0mph /  9.7km/h 84% 0.00in /  0mm
02:39 24.8 °F /  -4 °C 20.7 °F /  -6.3 °C 29.96in /  1014.4hPa SSW 2.0mph /  3.2km/h 6.0mph /  9.7km/h 84% 0.00in /  0mm
02:44 24.9 °F /  -3.9 °C 20.8 °F /  -6.2 °C 29.96in /  1014.4hPa South 2.0mph /  3.2km/h 4.0mph /  6.4km/h 84% 0.00in /  0mm
02:49 24.7 °F /  -4.1 °C 20.3 °F /  -6.5 °C 29.96in /  1014.4hPa South 4.0mph /  6.4km/h 5.0mph /  8km/h 83% 0.00in /  0mm
02:54 24.6 °F /  -4.1 °C 20.5 °F /  -6.4 °C 29.96in /  1014.4hPa South 2.0mph /  3.2km/h 4.0mph /  6.4km/h 84% 0.00in /  0mm
02:59 24.3 °F /  -4.3 °C 20.2 °F /  -6.6 °C 29.96in /  1014.4hPa South 2.0mph /  3.2km/h 4.0mph /  6.4km/h 84% 0.00in /  0mm
03:04 24.2 °F /  -4.3 °C 20.1 °F /  -6.6 °C 29.96in /  1014.4hPa South 2.0mph /  3.2km/h 4.0mph /  6.4km/h 84% 0.00in /  0mm
03:09 24.0 °F /  -4.4 °C 19.9 °F /  -6.7 °C 29.96in /  1014.4hPa South 2.0mph /  3.2km/h 3.0mph /  4.8km/h 84% 0.00in /  0mm
03:14 23.8 °F /  -4.6 °C 19.7 °F /  -6.8 °C 29.96in /  1014.4hPa South 2.0mph /  3.2km/h 3.0mph /  4.8km/h 84% 0.00in /  0mm
03:19 23.8 °F /  -4.6 °C 19.9 °F /  -6.7 °C 29.95in /  1014.1hPa SSW 2.0mph /  3.2km/h 4.0mph /  6.4km/h 85% 0.00in /  0mm
03:24 23.7 °F /  -4.6 °C 19.6 °F /  -6.9 °C 29.95in /  1014.1hPa Calm   2.0mph /  3.2km/h 84% 0.00in /  0mm
03:29 23.6 °F /  -4.7 °C 19.5 °F /  -6.9 °C 29.95in /  1014.1hPa South 1.0mph /  1.6km/h 3.0mph /  4.8km/h 84% 0.00in /  0mm
03:34 23.4 °F /  -4.8 °C 19.6 °F /  -6.9 °C 29.95in /  1014.1hPa South 1.0mph /  1.6km/h 3.0mph /  4.8km/h 85% 0.00in /  0mm
03:39 23.3 °F /  -4.8 °C 19.5 °F /  -6.9 °C 29.94in /  1013.8hPa South 1.0mph /  1.6km/h 3.0mph /  4.8km/h 85% 0.00in /  0mm
03:44 23.3 °F /  -4.8 °C 19.5 °F /  -6.9 °C 29.94in /  1013.8hPa South 1.0mph /  1.6km/h 3.0mph /  4.8km/h 85% 0.00in /  0mm
03:49 23.3 °F /  -4.8 °C 19.5 °F /  -6.9 °C 29.94in /  1013.8hPa South 2.0mph /  3.2km/h 3.0mph /  4.8km/h 85% 0.00in /  0mm
03:54 23.3 °F /  -4.8 °C 19.5 °F /  -6.9 °C 29.94in /  1013.8hPa SSW 1.0mph /  1.6km/h 4.0mph /  6.4km/h 85% 0.00in /  0mm
03:59 23.2 °F /  -4.9 °C 19.4 °F /  -7 °C 29.94in /  1013.8hPa South 1.0mph /  1.6km/h 3.0mph /  4.8km/h 85% 0.00in /  0mm
04:04 23.1 °F /  -4.9 °C 19.3 °F /  -7.1 °C 29.93in /  1013.4hPa South 1.0mph /  1.6km/h 3.0mph /  4.8km/h 85% 0.00in /  0mm
04:09 23.1 °F /  -4.9 °C 19.3 °F /  -7.1 °C 29.93in /  1013.4hPa South 2.0mph /  3.2km/h 4.0mph /  6.4km/h 85% 0.00in /  0mm
04:14 23.2 °F /  -4.9 °C 19.4 °F /  -7 °C 29.93in /  1013.4hPa South 2.0mph /  3.2km/h 4.0mph /  6.4km/h 85% 0.00in /  0mm
04:19 23.2 °F /  -4.9 °C 19.4 °F /  -7 °C 29.92in /  1013.1hPa South 2.0mph /  3.2km/h 3.0mph /  4.8km/h 85% 0.00in /  0mm
04:24 23.2 °F /  -4.9 °C 19.4 °F /  -7 °C 29.92in /  1013.1hPa South 2.0mph /  3.2km/h 3.0mph /  4.8km/h 85% 0.00in /  0mm
04:29 23.3 °F /  -4.8 °C 19.5 °F /  -6.9 °C 29.92in /  1013.1hPa South 2.0mph /  3.2km/h 4.0mph /  6.4km/h 85% 0.00in /  0mm
04:34 23.4 °F /  -4.8 °C 19.6 °F /  -6.9 °C 29.92in /  1013.1hPa South 1.0mph /  1.6km/h 3.0mph /  4.8km/h 85% 0.00in /  0mm
04:39 23.4 °F /  -4.8 °C 19.6 °F /  -6.9 °C 29.91in /  1012.8hPa South 2.0mph /  3.2km/h 4.0mph /  6.4km/h 85% 0.00in /  0mm
04:44 23.5 °F /  -4.7 °C 19.7 °F /  -6.8 °C 29.91in /  1012.8hPa South 1.0mph /  1.6km/h 4.0mph /  6.4km/h 85% 0.00in /  0mm
04:49 23.5 °F /  -4.7 °C 19.4 °F /  -7 °C 29.91in /  1012.8hPa South 2.0mph /  3.2km/h 3.0mph /  4.8km/h 84% 0.00in /  0mm
04:59 23.5 °F /  -4.7 °C 19.4 °F /  -7 °C 29.90in /  1012.4hPa SSE 2.0mph /  3.2km/h 4.0mph /  6.4km/h 84% 0.00in /  0mm
05:04 23.5 °F /  -4.7 °C 19.7 °F /  -6.8 °C 29.90in /  1012.4hPa SSE 2.0mph /  3.2km/h 3.0mph /  4.8km/h 85% 0.00in /  0mm
05:14 23.9 °F /  -4.5 °C 20.0 °F /  -6.7 °C 29.89in /  1012.1hPa SSE 3.0mph /  4.8km/h 4.0mph /  6.4km/h 85% 0.00in /  0mm
05:19 24.0 °F /  -4.4 °C 20.1 °F /  -6.6 °C 29.88in /  1011.7hPa South 2.0mph /  3.2km/h 4.0mph /  6.4km/h 85% 0.00in /  0mm
05:24 24.3 °F /  -4.3 °C 20.4 °F /  -6.4 °C 29.88in /  1011.7hPa South 2.0mph /  3.2km/h 5.0mph /  8km/h 85% 0.00in /  0mm
05:29 24.5 °F /  -4.2 °C 20.6 °F /  -6.3 °C 29.88in /  1011.7hPa South 4.0mph /  6.4km/h 6.0mph /  9.7km/h 85% 0.00in /  0mm
05:34 24.7 °F /  -4.1 °C 20.6 °F /  -6.3 °C 29.88in /  1011.7hPa South 2.0mph /  3.2km/h 5.0mph /  8km/h 84% 0.00in /  0mm
05:39 24.8 °F /  -4 °C 20.7 °F /  -6.3 °C 29.87in /  1011.4hPa South 2.0mph /  3.2km/h 4.0mph /  6.4km/h 84% 0.00in /  0mm
05:44 25.0 °F /  -3.9 °C 20.8 °F /  -6.2 °C 29.87in /  1011.4hPa SSW 2.0mph /  3.2km/h 4.0mph /  6.4km/h 84% 0.00in /  0mm
05:49 25.2 °F /  -3.8 °C 21.0 °F /  -6.1 °C 29.87in /  1011.4hPa South 3.0mph /  4.8km/h 6.0mph /  9.7km/h 84% 0.00in /  0mm
05:54 25.3 °F /  -3.7 °C 21.1 °F /  -6.1 °C 29.87in /  1011.4hPa South 3.0mph /  4.8km/h 6.0mph /  9.7km/h 84% 0.00in /  0mm
05:59 25.5 °F /  -3.6 °C 21.3 °F /  -5.9 °C 29.86in /  1011.1hPa South 2.0mph /  3.2km/h 4.0mph /  6.4km/h 84% 0.00in /  0mm
06:04 25.6 °F /  -3.6 °C 21.2 °F /  -6 °C 29.86in /  1011.1hPa South 3.0mph /  4.8km/h 5.0mph /  8km/h 83% 0.00in /  0mm
06:09 25.7 °F /  -3.5 °C 21.3 °F /  -5.9 °C 29.86in /  1011.1hPa South 2.0mph /  3.2km/h 5.0mph /  8km/h 83% 0.00in /  0mm
06:14 25.8 °F /  -3.4 °C 21.3 °F /  -5.9 °C 29.86in /  1011.1hPa South 2.0mph /  3.2km/h 4.0mph /  6.4km/h 83% 0.00in /  0mm
06:19 25.9 °F /  -3.4 °C 21.4 °F /  -5.9 °C 29.86in /  1011.1hPa South 1.0mph /  1.6km/h 2.0mph /  3.2km/h 83% 0.00in /  0mm
06:24 25.9 °F /  -3.4 °C 21.4 °F /  -5.9 °C 29.86in /  1011.1hPa South 1.0mph /  1.6km/h 2.0mph /  3.2km/h 83% 0.00in /  0mm
06:29 26.0 °F /  -3.3 °C 21.5 °F /  -5.8 °C 29.86in /  1011.1hPa Calm   2.0mph /  3.2km/h 83% 0.00in /  0mm
06:34 25.9 °F /  -3.4 °C 21.4 °F /  -5.9 °C 29.85in /  1010.7hPa South 1.0mph /  1.6km/h 3.0mph /  4.8km/h 83% 0.00in /  0mm
06:39 26.0 °F /  -3.3 °C 21.5 °F /  -5.8 °C 29.85in /  1010.7hPa South 3.0mph /  4.8km/h 3.0mph /  4.8km/h 83% 0.00in /  0mm
06:44 26.0 °F /  -3.3 °C 21.5 °F /  -5.8 °C 29.86in /  1011.1hPa South 2.0mph /  3.2km/h 4.0mph /  6.4km/h 83% 0.00in /  0mm
06:49 26.1 °F /  -3.3 °C 21.6 °F /  -5.8 °C 29.86in /  1011.1hPa SSW 2.0mph /  3.2km/h 5.0mph /  8km/h 83% 0.00in /  0mm
06:54 26.3 °F /  -3.2 °C 21.8 °F /  -5.7 °C 29.86in /  1011.1hPa South 2.0mph /  3.2km/h 5.0mph /  8km/h 83% 0.00in /  0mm
06:59 26.4 °F /  -3.1 °C 21.9 °F /  -5.6 °C 29.85in /  1010.7hPa South 2.0mph /  3.2km/h 4.0mph /  6.4km/h 83% 0.00in /  0mm
07:04 26.5 °F /  -3.1 °C 21.7 °F /  -5.7 °C 29.85in /  1010.7hPa SSW 2.0mph /  3.2km/h 5.0mph /  8km/h 82% 0.00in /  0mm
07:09 26.7 °F /  -2.9 °C 21.9 °F /  -5.6 °C 29.85in /  1010.7hPa SSW 2.0mph /  3.2km/h 5.0mph /  8km/h 82% 0.00in /  0mm
07:14 26.7 °F /  -2.9 °C 21.9 °F /  -5.6 °C 29.85in /  1010.7hPa South 3.0mph /  4.8km/h 5.0mph /  8km/h 82% 0.00in /  0mm
07:19 26.9 °F /  -2.8 °C 21.8 °F /  -5.7 °C 29.85in /  1010.7hPa SSW 3.0mph /  4.8km/h 7.0mph /  11.3km/h 81% 0.00in /  0mm
07:24 27.1 °F /  -2.7 °C 22.0 °F /  -5.6 °C 29.85in /  1010.7hPa South 4.0mph /  6.4km/h 5.0mph /  8km/h 81% 0.00in /  0mm
07:29 27.2 °F /  -2.7 °C 22.1 °F /  -5.5 °C 29.84in /  1010.4hPa South 3.0mph /  4.8km/h 7.0mph /  11.3km/h 81% 0.00in /  0mm
07:34 27.5 °F /  -2.5 °C 22.1 °F /  -5.5 °C 29.84in /  1010.4hPa South 4.0mph /  6.4km/h 8.0mph /  12.9km/h 80% 0.00in /  0mm
07:39 27.7 °F /  -2.4 °C 22.3 °F /  -5.4 °C 29.84in /  1010.4hPa South 2.0mph /  3.2km/h 7.0mph /  11.3km/h 80% 0.00in /  0mm
07:44 27.9 °F /  -2.3 °C 22.2 °F /  -5.4 °C 29.84in /  1010.4hPa South 2.0mph /  3.2km/h 7.0mph /  11.3km/h 79% 0.00in /  0mm
07:49 28.1 °F /  -2.2 °C 22.4 °F /  -5.3 °C 29.84in /  1010.4hPa SW 4.0mph /  6.4km/h 10.0mph /  16.1km/h 79% 0.00in /  0mm
07:54 28.3 °F /  -2.1 °C 22.6 °F /  -5.2 °C 29.84in /  1010.4hPa SSW 4.0mph /  6.4km/h 7.0mph /  11.3km/h 79% 0.00in /  0mm
07:59 28.5 °F /  -1.9 °C 22.5 °F /  -5.3 °C 29.84in /  1010.4hPa SSW 4.0mph /  6.4km/h 7.0mph /  11.3km/h 78% 0.00in /  0mm
08:04 28.6 °F /  -1.9 °C 22.6 °F /  -5.2 °C 29.83in /  1010hPa South 4.0mph /  6.4km/h 7.0mph /  11.3km/h 78% 0.00in /  0mm
08:09 28.6 °F /  -1.9 °C 22.6 °F /  -5.2 °C 29.83in /  1010hPa South 4.0mph /  6.4km/h 8.0mph /  12.9km/h 78% 0.00in /  0mm
08:14 28.7 °F /  -1.8 °C 22.4 °F /  -5.3 °C 29.83in /  1010hPa South 4.0mph /  6.4km/h 8.0mph /  12.9km/h 77% 0.00in /  0mm
08:19 28.7 °F /  -1.8 °C 22.7 °F /  -5.2 °C 29.82in /  1009.7hPa South 2.0mph /  3.2km/h 8.0mph /  12.9km/h 78% 0.00in /  0mm
08:24 28.9 °F /  -1.7 °C 22.9 °F /  -5.1 °C 29.82in /  1009.7hPa South 3.0mph /  4.8km/h 8.0mph /  12.9km/h 78% 0.00in /  0mm
08:29 29.2 °F /  -1.6 °C 23.2 °F /  -4.9 °C 29.82in /  1009.7hPa SW 4.0mph /  6.4km/h 7.0mph /  11.3km/h 78% 0.00in /  0mm
08:34 30.4 °F /  -0.9 °C 23.7 °F /  -4.6 °C 29.81in /  1009.4hPa South 4.0mph /  6.4km/h 8.0mph /  12.9km/h 76% 0.00in /  0mm
08:39 31.4 °F /  -0.3 °C 24.1 °F /  -4.4 °C 29.81in /  1009.4hPa South 5.0mph /  8km/h 10.0mph /  16.1km/h 74% 0.00in /  0mm
08:44 32.1 °F /  0.1 °C 24.4 °F /  -4.2 °C 29.81in /  1009.4hPa South 5.0mph /  8km/h 10.0mph /  16.1km/h 73% 0.00in /  0mm
08:49 32.7 °F /  0.4 °C 24.7 °F /  -4.1 °C 29.80in /  1009hPa SSW 7.0mph /  11.3km/h 8.0mph /  12.9km/h 72% 0.00in /  0mm
08:54 33.3 °F /  0.7 °C 24.9 °F /  -3.9 °C 29.80in /  1009hPa South 4.0mph /  6.4km/h 8.0mph /  12.9km/h 71% 0.00in /  0mm
08:59 34.2 °F /  1.2 °C 25.1 °F /  -3.8 °C 29.80in /  1009hPa SSW 5.0mph /  8km/h 11.0mph /  17.7km/h 69% 0.00in /  0mm
09:04 34.9 °F /  1.6 °C 24.7 °F /  -4.1 °C 29.80in /  1009hPa SSW 6.0mph /  9.7km/h 16.0mph /  25.7km/h 66% 0.00in /  0mm
09:09 35.3 °F /  1.8 °C 24.7 °F /  -4.1 °C 29.80in /  1009hPa South 4.0mph /  6.4km/h 16.0mph /  25.7km/h 65% 0.00in /  0mm
09:14 35.4 °F /  1.9 °C 24.4 °F /  -4.2 °C 29.79in /  1008.7hPa SSW 7.0mph /  11.3km/h 16.0mph /  25.7km/h 64% 0.00in /  0mm
09:19 35.7 °F /  2.1 °C 24.7 °F /  -4.1 °C 29.79in /  1008.7hPa SW 7.0mph /  11.3km/h 13.0mph /  20.9km/h 64% 0.00in /  0mm
09:24 36.0 °F /  2.2 °C 25.0 °F /  -3.9 °C 29.78in /  1008.4hPa SSW 7.0mph /  11.3km/h 15.0mph /  24.1km/h 64% 0.00in /  0mm
09:29 36.4 °F /  2.4 °C 25.4 °F /  -3.7 °C 29.78in /  1008.4hPa SSW 6.0mph /  9.7km/h 15.0mph /  24.1km/h 64% 0.00in /  0mm
09:34 36.6 °F /  2.6 °C 25.2 °F /  -3.8 °C 29.78in /  1008.4hPa South 10.0mph /  16.1km/h 13.0mph /  20.9km/h 63% 0.00in /  0mm
09:39 36.8 °F /  2.7 °C 25.4 °F /  -3.7 °C 29.78in /  1008.4hPa SW 6.0mph /  9.7km/h 12.0mph /  19.3km/h 63% 0.00in /  0mm
09:44 37.1 °F /  2.8 °C 25.3 °F /  -3.7 °C 29.78in /  1008.4hPa SSW 7.0mph /  11.3km/h 14.0mph /  22.5km/h 62% 0.00in /  0mm
09:49 37.4 °F /  3 °C 25.2 °F /  -3.8 °C 29.78in /  1008.4hPa SSW 6.0mph /  9.7km/h 17.0mph /  27.4km/h 61% 0.00in /  0mm
09:54 37.7 °F /  3.2 °C 25.8 °F /  -3.4 °C 29.77in /  1008hPa SW 7.0mph /  11.3km/h 17.0mph /  27.4km/h 62% 0.00in /  0mm
09:59 37.8 °F /  3.2 °C 25.5 °F /  -3.6 °C 29.77in /  1008hPa South 13.0mph /  20.9km/h 18.0mph /  29km/h 61% 0.00in /  0mm
10:04 37.7 °F /  3.2 °C 25.8 °F /  -3.4 °C 29.77in /  1008hPa SW 8.0mph /  12.9km/h 18.0mph /  29km/h 62% 0.00in /  0mm
10:09 38.1 °F /  3.4 °C 25.4 °F /  -3.7 °C 29.76in /  1007.7hPa SSW 7.0mph /  11.3km/h 14.0mph /  22.5km/h 60% 0.00in /  0mm
10:14 38.6 °F /  3.7 °C 25.9 °F /  -3.4 °C 29.76in /  1007.7hPa South 11.0mph /  17.7km/h 15.0mph /  24.1km/h 60% 0.00in /  0mm
10:19 38.9 °F /  3.8 °C 26.2 °F /  -3.2 °C 29.76in /  1007.7hPa SW 8.0mph /  12.9km/h 15.0mph /  24.1km/h 60% 0.00in /  0mm
10:24 38.7 °F /  3.7 °C 26.0 °F /  -3.3 °C 29.76in /  1007.7hPa SW 7.0mph /  11.3km/h 14.0mph /  22.5km/h 60% 0.00in /  0mm
10:29 39.1 °F /  3.9 °C 26.4 °F /  -3.1 °C 29.75in /  1007.3hPa SW 7.0mph /  11.3km/h 13.0mph /  20.9km/h 60% 0.00in /  0mm
10:34 39.2 °F /  4 °C 26.1 °F /  -3.3 °C 29.75in /  1007.3hPa SW 7.0mph /  11.3km/h 13.0mph /  20.9km/h 59% 0.00in /  0mm
10:39 39.0 °F /  3.9 °C 26.3 °F /  -3.2 °C 29.75in /  1007.3hPa WSW 11.0mph /  17.7km/h 16.0mph /  25.7km/h 60% 0.00in /  0mm
10:44 39.1 °F /  3.9 °C 26.0 °F /  -3.3 °C 29.74in /  1007hPa SSW 8.0mph /  12.9km/h 16.0mph /  25.7km/h 59% 0.00in /  0mm
10:49 39.5 °F /  4.2 °C 26.3 °F /  -3.2 °C 29.74in /  1007hPa SW 4.0mph /  6.4km/h 13.0mph /  20.9km/h 59% 0.00in /  0mm
10:54 39.6 °F /  4.2 °C 26.0 °F /  -3.3 °C 29.74in /  1007hPa SW 7.0mph /  11.3km/h 14.0mph /  22.5km/h 58% 0.00in /  0mm
10:59 39.9 °F /  4.4 °C 26.7 °F /  -2.9 °C 29.74in /  1007hPa SW 8.0mph /  12.9km/h 15.0mph /  24.1km/h 59% 0.00in /  0mm
11:04 40.0 °F /  4.4 °C 26.0 °F /  -3.3 °C 29.74in /  1007hPa WSW 13.0mph /  20.9km/h 23.0mph /  37km/h 57% 0.00in /  0mm
11:14 40.5 °F /  4.7 °C 26.0 °F /  -3.3 °C 29.73in /  1006.7hPa South 6.0mph /  9.7km/h 17.0mph /  27.4km/h 56% 0.00in /  0mm
11:19 40.7 °F /  4.8 °C 25.8 °F /  -3.4 °C 29.73in /  1006.7hPa SW 9.0mph /  14.5km/h 20.0mph /  32.2km/h 55% 0.00in /  0mm
11:24 40.6 °F /  4.8 °C 25.7 °F /  -3.5 °C 29.73in /  1006.7hPa WSW 12.0mph /  19.3km/h 18.0mph /  29km/h 55% 0.00in /  0mm
11:29 40.9 °F /  4.9 °C 26.0 °F /  -3.3 °C 29.73in /  1006.7hPa SW 11.0mph /  17.7km/h 19.0mph /  30.6km/h 55% 0.00in /  0mm
11:34 41.2 °F /  5.1 °C 26.2 °F /  -3.2 °C 29.73in /  1006.7hPa SW 10.0mph /  16.1km/h 19.0mph /  30.6km/h 55% 0.00in /  0mm
11:39 40.9 °F /  4.9 °C 26.0 °F /  -3.3 °C 29.72in /  1006.3hPa SW 11.0mph /  17.7km/h 23.0mph /  37km/h 55% 0.00in /  0mm
11:44 40.9 °F /  4.9 °C 26.0 °F /  -3.3 °C 29.72in /  1006.3hPa SW 12.0mph /  19.3km/h 25.0mph /  40.2km/h 55% 0.00in /  0mm
11:49 41.1 °F /  5.1 °C 26.6 °F /  -3 °C 29.72in /  1006.3hPa SW 11.0mph /  17.7km/h 25.0mph /  40.2km/h 56% 0.00in /  0mm
11:54 41.4 °F /  5.2 °C 26.9 °F /  -2.8 °C 29.71in /  1006hPa SW 10.0mph /  16.1km/h 22.0mph /  35.4km/h 56% 0.00in /  0mm
11:59 41.4 °F /  5.2 °C 26.4 °F /  -3.1 °C 29.71in /  1006hPa West 8.0mph /  12.9km/h 21.0mph /  33.8km/h 55% 0.00in /  0mm
12:04 41.3 °F /  5.2 °C 26.3 °F /  -3.2 °C 29.71in /  1006hPa SW 11.0mph /  17.7km/h 23.0mph /  37km/h 55% 0.00in /  0mm
12:09 41.1 °F /  5.1 °C 26.6 °F /  -3 °C 29.70in /  1005.6hPa SW 11.0mph /  17.7km/h 23.0mph /  37km/h 56% 0.00in /  0mm
12:14 41.5 °F /  5.3 °C 27.4 °F /  -2.6 °C 29.70in /  1005.6hPa SW 5.0mph /  8km/h 20.0mph /  32.2km/h 57% 0.00in /  0mm
12:19 41.5 °F /  5.3 °C 27.4 °F /  -2.6 °C 29.70in /  1005.6hPa West 8.0mph /  12.9km/h 22.0mph /  35.4km/h 57% 0.00in /  0mm
12:24 41.2 °F /  5.1 °C 26.7 °F /  -2.9 °C 29.69in /  1005.3hPa West 6.0mph /  9.7km/h 22.0mph /  35.4km/h 56% 0.00in /  0mm
12:29 41.2 °F /  5.1 °C 27.1 °F /  -2.7 °C 29.69in /  1005.3hPa SW 13.0mph /  20.9km/h 22.0mph /  35.4km/h 57% 0.00in /  0mm
12:34 41.2 °F /  5.1 °C 27.1 °F /  -2.7 °C 29.69in /  1005.3hPa SW 13.0mph /  20.9km/h 25.0mph /  40.2km/h 57% 0.00in /  0mm
12:39 41.5 °F /  5.3 °C 28.2 °F /  -2.1 °C 29.68in /  1005hPa SW 12.0mph /  19.3km/h 25.0mph /  40.2km/h 59% 0.00in /  0mm
12:44 41.7 °F /  5.4 °C 28.0 °F /  -2.2 °C 29.69in /  1005.3hPa WSW 11.0mph /  17.7km/h 19.0mph /  30.6km/h 58% 0.00in /  0mm
12:49 41.4 °F /  5.2 °C 27.3 °F /  -2.6 °C 29.68in /  1005hPa SW 9.0mph /  14.5km/h 24.0mph /  38.6km/h 57% 0.00in /  0mm
12:54 41.5 °F /  5.3 °C 28.2 °F /  -2.1 °C 29.69in /  1005.3hPa SW 13.0mph /  20.9km/h 24.0mph /  38.6km/h 59% 0.00in /  0mm
12:59 41.7 °F /  5.4 °C 27.6 °F /  -2.4 °C 29.68in /  1005hPa SW 12.0mph /  19.3km/h 24.0mph /  38.6km/h 57% 0.00in /  0mm
13:04 42.0 °F /  5.6 °C 27.9 °F /  -2.3 °C 29.69in /  1005.3hPa WNW 15.0mph /  24.1km/h 28.0mph /  45.1km/h 57% 0.00in /  0mm
13:09 41.6 °F /  5.3 °C 27.9 °F /  -2.3 °C 29.68in /  1005hPa SW 14.0mph /  22.5km/h 25.0mph /  40.2km/h 58% 0.00in /  0mm
13:14 41.5 °F /  5.3 °C 27.8 °F /  -2.3 °C 29.68in /  1005hPa SW 13.0mph /  20.9km/h 25.0mph /  40.2km/h 58% 0.00in /  0mm
13:19 41.3 °F /  5.2 °C 28.0 °F /  -2.2 °C 29.67in /  1004.6hPa SW 9.0mph /  14.5km/h 27.0mph /  43.5km/h 59% 0.00in /  0mm
13:24 41.5 °F /  5.3 °C 28.6 °F /  -1.9 °C 29.67in /  1004.6hPa WSW 11.0mph /  17.7km/h 23.0mph /  37km/h 60% 0.00in /  0mm
13:29 41.3 °F /  5.2 °C 28.4 °F /  -2 °C 29.67in /  1004.6hPa WSW 14.0mph /  22.5km/h 22.0mph /  35.4km/h 60% 0.00in /  0mm
13:34 41.4 °F /  5.2 °C 28.1 °F /  -2.2 °C 29.67in /  1004.6hPa WSW 13.0mph /  20.9km/h 26.0mph /  41.8km/h 59% 0.00in /  0mm
13:39 41.4 °F /  5.2 °C 28.1 °F /  -2.2 °C 29.67in /  1004.6hPa WSW 12.0mph /  19.3km/h 26.0mph /  41.8km/h 59% 0.00in /  0mm
13:44 41.6 °F /  5.3 °C 28.7 °F /  -1.8 °C 29.67in /  1004.6hPa WSW 11.0mph /  17.7km/h 27.0mph /  43.5km/h 60% 0.00in /  0mm
13:49 41.5 °F /  5.3 °C 28.6 °F /  -1.9 °C 29.67in /  1004.6hPa WSW 11.0mph /  17.7km/h 27.0mph /  43.5km/h 60% 0.00in /  0mm
13:54 41.4 °F /  5.2 °C 28.9 °F /  -1.7 °C 29.67in /  1004.6hPa SW 10.0mph /  16.1km/h 26.0mph /  41.8km/h 61% 0.00in /  0mm
13:59 40.9 °F /  4.9 °C 28.5 °F /  -1.9 °C 29.66in /  1004.3hPa West 13.0mph /  20.9km/h 25.0mph /  40.2km/h 61% 0.00in /  0mm
14:04 40.7 °F /  4.8 °C 28.3 °F /  -2.1 °C 29.66in /  1004.3hPa WSW 15.0mph /  24.1km/h 23.0mph /  37km/h 61% 0.00in /  0mm
14:09 40.6 °F /  4.8 °C 28.2 °F /  -2.1 °C 29.65in /  1003.9hPa SW 21.0mph /  33.8km/h 27.0mph /  43.5km/h 61% 0.00in /  0mm
14:14 40.5 °F /  4.7 °C 28.9 °F /  -1.7 °C 29.65in /  1003.9hPa West 13.0mph /  20.9km/h 29.0mph /  46.7km/h 63% 0.00in /  0mm
14:19 40.6 °F /  4.8 °C 29.0 °F /  -1.7 °C 29.65in /  1003.9hPa WSW 9.0mph /  14.5km/h 23.0mph /  37km/h 63% 0.00in /  0mm
14:24 40.9 °F /  4.9 °C 29.3 °F /  -1.5 °C 29.65in /  1003.9hPa WSW 12.0mph /  19.3km/h 23.0mph /  37km/h 63% 0.00in /  0mm
14:29 40.4 °F /  4.7 °C 28.4 °F /  -2 °C 29.65in /  1003.9hPa NW 11.0mph /  17.7km/h 27.0mph /  43.5km/h 62% 0.00in /  0mm
14:34 40.1 °F /  4.5 °C 28.9 °F /  -1.7 °C 29.65in /  1003.9hPa West 8.0mph /  12.9km/h 24.0mph /  38.6km/h 64% 0.00in /  0mm
14:39 39.9 °F /  4.4 °C 28.3 °F /  -2.1 °C 29.66in /  1004.3hPa SW 17.0mph /  27.4km/h 29.0mph /  46.7km/h 63% 0.00in /  0mm
14:49 38.7 °F /  3.7 °C 28.3 °F /  -2.1 °C 29.65in /  1003.9hPa WSW 14.0mph /  22.5km/h 31.0mph /  49.9km/h 66% 0.00in /  0mm
14:54 38.8 °F /  3.8 °C 28.8 °F /  -1.8 °C 29.65in /  1003.9hPa WSW 12.0mph /  19.3km/h 31.0mph /  49.9km/h 67% 0.00in /  0mm
14:59 38.6 °F /  3.7 °C 28.6 °F /  -1.9 °C 29.65in /  1003.9hPa WNW 7.0mph /  11.3km/h 23.0mph /  37km/h 67% 0.00in /  0mm
15:04 38.5 °F /  3.6 °C 28.9 °F /  -1.7 °C 29.65in /  1003.9hPa WSW 8.0mph /  12.9km/h 17.0mph /  27.4km/h 68% 0.00in /  0mm
15:09 38.5 °F /  3.6 °C 28.9 °F /  -1.7 °C 29.65in /  1003.9hPa West 5.0mph /  8km/h 18.0mph /  29km/h 68% 0.00in /  0mm
15:14 38.7 °F /  3.7 °C 29.0 °F /  -1.7 °C 29.64in /  1003.6hPa WSW 10.0mph /  16.1km/h 19.0mph /  30.6km/h 68% 0.00in /  0mm
15:19 38.8 °F /  3.8 °C 29.1 °F /  -1.6 °C 29.64in /  1003.6hPa WSW 16.0mph /  25.7km/h 19.0mph /  30.6km/h 68% 0.00in /  0mm
15:24 38.6 °F /  3.7 °C 28.9 °F /  -1.7 °C 29.64in /  1003.6hPa WSW 12.0mph /  19.3km/h 16.0mph /  25.7km/h 68% 0.00in /  0mm
15:29 38.5 °F /  3.6 °C 28.9 °F /  -1.7 °C 29.64in /  1003.6hPa SW 10.0mph /  16.1km/h 19.0mph /  30.6km/h 68% 0.00in /  0mm
15:34 38.3 °F /  3.5 °C 29.0 °F /  -1.7 °C 29.64in /  1003.6hPa WSW 7.0mph /  11.3km/h 19.0mph /  30.6km/h 69% 0.00in /  0mm
15:39 38.4 °F /  3.6 °C 29.5 °F /  -1.4 °C 29.64in /  1003.6hPa WSW 16.0mph /  25.7km/h 16.0mph /  25.7km/h 70% 0.00in /  0mm
15:44 38.4 °F /  3.6 °C 29.5 °F /  -1.4 °C 29.64in /  1003.6hPa SW 7.0mph /  11.3km/h 17.0mph /  27.4km/h 70% 0.00in /  0mm
15:49 38.3 °F /  3.5 °C 29.4 °F /  -1.4 °C 29.64in /  1003.6hPa WSW 8.0mph /  12.9km/h 17.0mph /  27.4km/h 70% 0.00in /  0mm
15:54 38.0 °F /  3.3 °C 29.4 °F /  -1.4 °C 29.64in /  1003.6hPa SW 9.0mph /  14.5km/h 16.0mph /  25.7km/h 71% 0.00in /  0mm
15:59 37.9 °F /  3.3 °C 29.3 °F /  -1.5 °C 29.64in /  1003.6hPa WSW 8.0mph /  12.9km/h 17.0mph /  27.4km/h 71% 0.00in /  0mm
16:04 37.6 °F /  3.1 °C 29.4 °F /  -1.4 °C 29.64in /  1003.6hPa WSW 9.0mph /  14.5km/h 22.0mph /  35.4km/h 72% 0.00in /  0mm
16:09 37.4 °F /  3 °C 29.5 °F /  -1.4 °C 29.64in /  1003.6hPa WSW 9.0mph /  14.5km/h 22.0mph /  35.4km/h 73% 0.00in /  0mm
16:14 37.3 °F /  2.9 °C 29.8 °F /  -1.2 °C 29.64in /  1003.6hPa SW 9.0mph /  14.5km/h 22.0mph /  35.4km/h 74% 0.00in /  0mm
16:19 37.1 °F /  2.8 °C 29.6 °F /  -1.3 °C 29.64in /  1003.6hPa SW 11.0mph /  17.7km/h 18.0mph /  29km/h 74% 0.00in /  0mm
16:24 37.1 °F /  2.8 °C 29.6 °F /  -1.3 °C 29.64in /  1003.6hPa SW 4.0mph /  6.4km/h 15.0mph /  24.1km/h 74% 0.00in /  0mm
16:29 37.1 °F /  2.8 °C 29.9 °F /  -1.2 °C 29.64in /  1003.6hPa WSW 8.0mph /  12.9km/h 15.0mph /  24.1km/h 75% 0.00in /  0mm
16:34 37.0 °F /  2.8 °C 29.8 °F /  -1.2 °C 29.64in /  1003.6hPa WSW 7.0mph /  11.3km/h 17.0mph /  27.4km/h 75% 0.00in /  0mm
16:39 37.0 °F /  2.8 °C 29.8 °F /  -1.2 °C 29.64in /  1003.6hPa SW 8.0mph /  12.9km/h 17.0mph /  27.4km/h 75% 0.00in /  0mm
16:44 36.9 °F /  2.7 °C 29.7 °F /  -1.3 °C 29.64in /  1003.6hPa West 6.0mph /  9.7km/h 21.0mph /  33.8km/h 75% 0.00in /  0mm
16:49 36.9 °F /  2.7 °C 29.7 °F /  -1.3 °C 29.64in /  1003.6hPa WSW 8.0mph /  12.9km/h 21.0mph /  33.8km/h 75% 0.00in /  0mm
16:54 36.8 °F /  2.7 °C 29.9 °F /  -1.2 °C 29.64in /  1003.6hPa WSW 8.0mph /  12.9km/h 16.0mph /  25.7km/h 76% 0.00in /  0mm
16:59 36.7 °F /  2.6 °C 29.8 °F /  -1.2 °C 29.63in /  1003.3hPa WSW 8.0mph /  12.9km/h 14.0mph /  22.5km/h 76% 0.00in /  0mm
17:04 36.6 °F /  2.6 °C 29.7 °F /  -1.3 °C 29.64in /  1003.6hPa SW 4.0mph /  6.4km/h 16.0mph /  25.7km/h 76% 0.00in /  0mm
17:09 36.5 °F /  2.5 °C 30.0 °F /  -1.1 °C 29.63in /  1003.3hPa SSW 10.0mph /  16.1km/h 14.0mph /  22.5km/h 77% 0.00in /  0mm
17:14 36.4 °F /  2.4 °C 29.9 °F /  -1.2 °C 29.63in /  1003.3hPa SW 9.0mph /  14.5km/h 14.0mph /  22.5km/h 77% 0.00in /  0mm
17:19 36.3 °F /  2.4 °C 30.1 °F /  -1.1 °C 29.63in /  1003.3hPa South 8.0mph /  12.9km/h 15.0mph /  24.1km/h 78% 0.00in /  0mm
17:24 36.2 °F /  2.3 °C 30.0 °F /  -1.1 °C 29.64in /  1003.6hPa SW 9.0mph /  14.5km/h 12.0mph /  19.3km/h 78% 0.00in /  0mm
17:29 36.1 °F /  2.3 °C 29.9 °F /  -1.2 °C 29.64in /  1003.6hPa WSW 7.0mph /  11.3km/h 13.0mph /  20.9km/h 78% 0.00in /  0mm
17:34 36.1 °F /  2.3 °C 30.2 °F /  -1 °C 29.64in /  1003.6hPa WSW 6.0mph /  9.7km/h 13.0mph /  20.9km/h 79% 0.00in /  0mm
17:39 36.0 °F /  2.2 °C 30.1 °F /  -1.1 °C 29.64in /  1003.6hPa WSW 8.0mph /  12.9km/h 14.0mph /  22.5km/h 79% 0.00in /  0mm
17:44 35.9 °F /  2.2 °C 30.0 °F /  -1.1 °C 29.64in /  1003.6hPa WSW 7.0mph /  11.3km/h 14.0mph /  22.5km/h 79% 0.00in /  0mm
17:49 35.9 °F /  2.2 °C 30.0 °F /  -1.1 °C 29.64in /  1003.6hPa SW 10.0mph /  16.1km/h 12.0mph /  19.3km/h 79% 0.00in /  0mm
17:54 35.9 °F /  2.2 °C 30.0 °F /  -1.1 °C 29.65in /  1003.9hPa WSW 11.0mph /  17.7km/h 11.0mph /  17.7km/h 79% 0.00in /  0mm
17:59 35.9 °F /  2.2 °C 30.3 °F /  -0.9 °C 29.64in /  1003.6hPa SW 7.0mph /  11.3km/h 14.0mph /  22.5km/h 80% 0.00in /  0mm
18:04 35.8 °F /  2.1 °C 30.2 °F /  -1 °C 29.64in /  1003.6hPa WSW 7.0mph /  11.3km/h 14.0mph /  22.5km/h 80% 0.00in /  0mm
18:09 35.7 °F /  2.1 °C 30.1 °F /  -1.1 °C 29.64in /  1003.6hPa WSW 5.0mph /  8km/h 11.0mph /  17.7km/h 80% 0.00in /  0mm
18:14 35.7 °F /  2.1 °C 30.1 °F /  -1.1 °C 29.64in /  1003.6hPa WSW 3.0mph /  4.8km/h 9.0mph /  14.5km/h 80% 0.00in /  0mm
18:19 35.7 °F /  2.1 °C 30.1 °F /  -1.1 °C 29.64in /  1003.6hPa SSW 3.0mph /  4.8km/h 6.0mph /  9.7km/h 80% 0.00in /  0mm
18:24 35.7 °F /  2.1 °C 30.4 °F /  -0.9 °C 29.64in /  1003.6hPa SW 4.0mph /  6.4km/h 10.0mph /  16.1km/h 81% 0.00in /  0mm
18:29 35.6 °F /  2 °C 30.3 °F /  -0.9 °C 29.64in /  1003.6hPa SW 6.0mph /  9.7km/h 8.0mph /  12.9km/h 81% 0.00in /  0mm
18:34 35.5 °F /  1.9 °C 30.2 °F /  -1 °C 29.64in /  1003.6hPa SW 5.0mph /  8km/h 10.0mph /  16.1km/h 81% 0.00in /  0mm
18:39 35.5 °F /  1.9 °C 30.2 °F /  -1 °C 29.64in /  1003.6hPa SW 5.0mph /  8km/h 10.0mph /  16.1km/h 81% 0.00in /  0mm
18:44 35.4 °F /  1.9 °C 30.5 °F /  -0.8 °C 29.64in /  1003.6hPa SW 5.0mph /  8km/h 9.0mph /  14.5km/h 82% 0.00in /  0mm
18:49 35.3 °F /  1.8 °C 30.4 °F /  -0.9 °C 29.64in /  1003.6hPa SW 4.0mph /  6.4km/h 10.0mph /  16.1km/h 82% 0.00in /  0mm
18:54 35.4 °F /  1.9 °C 30.5 °F /  -0.8 °C 29.64in /  1003.6hPa SW 4.0mph /  6.4km/h 10.0mph /  16.1km/h 82% 0.00in /  0mm
18:59 35.4 °F /  1.9 °C 30.5 °F /  -0.8 °C 29.64in /  1003.6hPa SSW 3.0mph /  4.8km/h 8.0mph /  12.9km/h 82% 0.00in /  0mm
19:04 35.4 °F /  1.9 °C 30.5 °F /  -0.8 °C 29.64in /  1003.6hPa SSW 4.0mph /  6.4km/h 8.0mph /  12.9km/h 82% 0.00in /  0mm
19:09 35.4 °F /  1.9 °C 30.5 °F /  -0.8 °C 29.64in /  1003.6hPa SSW 5.0mph /  8km/h 9.0mph /  14.5km/h 82% 0.00in /  0mm
19:14 35.3 °F /  1.8 °C 30.4 °F /  -0.9 °C 29.63in /  1003.3hPa SW 5.0mph /  8km/h 7.0mph /  11.3km/h 82% 0.00in /  0mm
19:19 35.3 °F /  1.8 °C 30.7 °F /  -0.7 °C 29.63in /  1003.3hPa SSW 3.0mph /  4.8km/h 8.0mph /  12.9km/h 83% 0.00in /  0mm
19:24 35.2 °F /  1.8 °C 30.6 °F /  -0.8 °C 29.63in /  1003.3hPa SW 3.0mph /  4.8km/h 8.0mph /  12.9km/h 83% 0.00in /  0mm
19:29 35.1 °F /  1.7 °C 30.5 °F /  -0.8 °C 29.63in /  1003.3hPa SSW 2.0mph /  3.2km/h 6.0mph /  9.7km/h 83% 0.00in /  0mm
19:34 35.1 °F /  1.7 °C 30.5 °F /  -0.8 °C 29.63in /  1003.3hPa WSW 6.0mph /  9.7km/h 8.0mph /  12.9km/h 83% 0.00in /  0mm
19:39 35.2 °F /  1.8 °C 30.6 °F /  -0.8 °C 29.63in /  1003.3hPa WSW 5.0mph /  8km/h 8.0mph /  12.9km/h 83% 0.00in /  0mm
19:44 35.3 °F /  1.8 °C 30.7 °F /  -0.7 °C 29.63in /  1003.3hPa SW 4.0mph /  6.4km/h 11.0mph /  17.7km/h 83% 0.00in /  0mm
19:49 35.2 °F /  1.8 °C 30.9 °F /  -0.6 °C 29.62in /  1002.9hPa SW 4.0mph /  6.4km/h 11.0mph /  17.7km/h 84% 0.00in /  0mm
19:54 35.1 °F /  1.7 °C 30.8 °F /  -0.7 °C 29.62in /  1002.9hPa SW 4.0mph /  6.4km/h 9.0mph /  14.5km/h 84% 0.00in /  0mm
19:59 35.1 °F /  1.7 °C 30.8 °F /  -0.7 °C 29.62in /  1002.9hPa SW 4.0mph /  6.4km/h 10.0mph /  16.1km/h 84% 0.00in /  0mm
20:04 35.1 °F /  1.7 °C 30.8 °F /  -0.7 °C 29.62in /  1002.9hPa SW 5.0mph /  8km/h 10.0mph /  16.1km/h 84% 0.00in /  0mm
20:09 35.1 °F /  1.7 °C 31.0 °F /  -0.6 °C 29.61in /  1002.6hPa SW 4.0mph /  6.4km/h 8.0mph /  12.9km/h 85% 0.00in /  0mm
20:14 35.2 °F /  1.8 °C 31.1 °F /  -0.5 °C 29.62in /  1002.9hPa SW 4.0mph /  6.4km/h 7.0mph /  11.3km/h 85% 0.00in /  0mm
20:19 35.3 °F /  1.8 °C 31.2 °F /  -0.4 °C 29.61in /  1002.6hPa SW 3.0mph /  4.8km/h 7.0mph /  11.3km/h 85% 0.00in /  0mm
20:24 35.4 °F /  1.9 °C 31.3 °F /  -0.4 °C 29.61in /  1002.6hPa West 4.0mph /  6.4km/h 6.0mph /  9.7km/h 85% 0.00in /  0mm
20:29 35.5 °F /  1.9 °C 31.4 °F /  -0.3 °C 29.61in /  1002.6hPa SSW 3.0mph /  4.8km/h 8.0mph /  12.9km/h 85% 0.00in /  0mm
20:34 35.7 °F /  2.1 °C 31.6 °F /  -0.2 °C 29.61in /  1002.6hPa SW 2.0mph /  3.2km/h 12.0mph /  19.3km/h 85% 0.00in /  0mm
20:39 35.8 °F /  2.1 °C 31.4 °F /  -0.3 °C 29.61in /  1002.6hPa SW 4.0mph /  6.4km/h 12.0mph /  19.3km/h 84% 0.00in /  0mm
20:44 35.9 °F /  2.2 °C 31.5 °F /  -0.3 °C 29.60in /  1002.3hPa SW 4.0mph /  6.4km/h 10.0mph /  16.1km/h 84% 0.00in /  0mm
20:49 36.0 °F /  2.2 °C 31.6 °F /  -0.2 °C 29.60in /  1002.3hPa SW 4.0mph /  6.4km/h 10.0mph /  16.1km/h 84% 0.00in /  0mm
20:54 36.1 °F /  2.3 °C 31.7 °F /  -0.2 °C 29.60in /  1002.3hPa SW 4.0mph /  6.4km/h 8.0mph /  12.9km/h 84% 0.00in /  0mm
20:59 36.1 °F /  2.3 °C 31.7 °F /  -0.2 °C 29.60in /  1002.3hPa SW 4.0mph /  6.4km/h 8.0mph /  12.9km/h 84% 0.00in /  0mm
21:04 36.1 °F /  2.3 °C 31.7 °F /  -0.2 °C 29.59in /  1001.9hPa WSW 5.0mph /  8km/h 7.0mph /  11.3km/h 84% 0.00in /  0mm
21:09 36.2 °F /  2.3 °C 31.8 °F /  -0.1 °C 29.59in /  1001.9hPa South 2.0mph /  3.2km/h 9.0mph /  14.5km/h 84% 0.00in /  0mm
21:14 36.2 °F /  2.3 °C 31.8 °F /  -0.1 °C 29.59in /  1001.9hPa SW 5.0mph /  8km/h 9.0mph /  14.5km/h 84% 0.00in /  0mm
21:19 36.3 °F /  2.4 °C 31.9 °F /  -0.1 °C 29.59in /  1001.9hPa SSW 3.0mph /  4.8km/h 9.0mph /  14.5km/h 84% 0.00in /  0mm
21:24 36.2 °F /  2.3 °C 31.8 °F /  -0.1 °C 29.59in /  1001.9hPa SW 4.0mph /  6.4km/h 9.0mph /  14.5km/h 84% 0.00in /  0mm
21:29 36.2 °F /  2.3 °C 31.8 °F /  -0.1 °C 29.58in /  1001.6hPa SW 3.0mph /  4.8km/h 9.0mph /  14.5km/h 84% 0.00in /  0mm
21:34 36.3 °F /  2.4 °C 31.9 °F /  -0.1 °C 29.58in /  1001.6hPa SW 4.0mph /  6.4km/h 7.0mph /  11.3km/h 84% 0.00in /  0mm
21:39 36.3 °F /  2.4 °C 31.9 °F /  -0.1 °C 29.58in /  1001.6hPa SSW 3.0mph /  4.8km/h 7.0mph /  11.3km/h 84% 0.00in /  0mm
21:44 36.4 °F /  2.4 °C 32.0 °F /  0 °C 29.58in /  1001.6hPa SW 5.0mph /  8km/h 8.0mph /  12.9km/h 84% 0.00in /  0mm
21:49 36.4 °F /  2.4 °C 32.0 °F /  0 °C 29.58in /  1001.6hPa SW 4.0mph /  6.4km/h 8.0mph /  12.9km/h 84% 0.00in /  0mm
21:54 36.5 °F /  2.5 °C 31.8 °F /  -0.1 °C 29.57in /  1001.2hPa SW 4.0mph /  6.4km/h 8.0mph /  12.9km/h 83% 0.00in /  0mm
21:59 36.5 °F /  2.5 °C 31.8 °F /  -0.1 °C 29.57in /  1001.2hPa SSW 2.0mph /  3.2km/h 6.0mph /  9.7km/h 83% 0.00in /  0mm
22:04 36.7 °F /  2.6 °C 32.0 °F /  0 °C 29.57in /  1001.2hPa SSW 2.0mph /  3.2km/h 7.0mph /  11.3km/h 83% 0.00in /  0mm
22:09 36.8 °F /  2.7 °C 32.1 °F /  0.1 °C 29.56in /  1000.9hPa SSW 5.0mph /  8km/h 10.0mph /  16.1km/h 83% 0.00in /  0mm
22:14 36.9 °F /  2.7 °C 32.2 °F /  0.1 °C 29.56in /  1000.9hPa SW 5.0mph /  8km/h 10.0mph /  16.1km/h 83% 0.00in /  0mm
22:19 36.9 °F /  2.7 °C 32.2 °F /  0.1 °C 29.56in /  1000.9hPa SW 7.0mph /  11.3km/h 11.0mph /  17.7km/h 83% 0.00in /  0mm
22:24 37.0 °F /  2.8 °C 32.0 °F /  0 °C 29.56in /  1000.9hPa SW 5.0mph /  8km/h 11.0mph /  17.7km/h 82% 0.00in /  0mm
22:29 37.0 °F /  2.8 °C 32.0 °F /  0 °C 29.56in /  1000.9hPa SW 6.0mph /  9.7km/h 11.0mph /  17.7km/h 82% 0.00in /  0mm
22:34 37.0 °F /  2.8 °C 32.3 °F /  0.2 °C 29.56in /  1000.9hPa SW 6.0mph /  9.7km/h 11.0mph /  17.7km/h 83% 0.00in /  0mm
22:39 36.9 °F /  2.7 °C 32.2 °F /  0.1 °C 29.56in /  1000.9hPa WSW 3.0mph /  4.8km/h 9.0mph /  14.5km/h 83% 0.00in /  0mm
22:44 36.8 °F /  2.7 °C 32.1 °F /  0.1 °C 29.56in /  1000.9hPa West 5.0mph /  8km/h 11.0mph /  17.7km/h 83% 0.00in /  0mm
22:49 36.8 °F /  2.7 °C 32.1 °F /  0.1 °C 29.55in /  1000.6hPa SW 5.0mph /  8km/h 10.0mph /  16.1km/h 83% 0.00in /  0mm
22:54 36.7 °F /  2.6 °C 32.3 °F /  0.2 °C 29.55in /  1000.6hPa WSW 7.0mph /  11.3km/h 11.0mph /  17.7km/h 84% 0.00in /  0mm
22:59 36.7 °F /  2.6 °C 32.0 °F /  0 °C 29.55in /  1000.6hPa WSW 9.0mph /  14.5km/h 12.0mph /  19.3km/h 83% 0.00in /  0mm
23:04 36.6 °F /  2.6 °C 32.2 °F /  0.1 °C 29.56in /  1000.9hPa WSW 3.0mph /  4.8km/h 13.0mph /  20.9km/h 84% 0.00in /  0mm
23:09 36.4 °F /  2.4 °C 32.0 °F /  0 °C 29.55in /  1000.6hPa WSW 6.0mph /  9.7km/h 11.0mph /  17.7km/h 84% 0.00in /  0mm
23:14 36.2 °F /  2.3 °C 32.1 °F /  0.1 °C 29.55in /  1000.6hPa West 3.0mph /  4.8km/h 11.0mph /  17.7km/h 85% 0.00in /  0mm
23:19 36.1 °F /  2.3 °C 32.0 °F /  0 °C 29.55in /  1000.6hPa WSW 6.0mph /  9.7km/h 12.0mph /  19.3km/h 85% 0.00in /  0mm
23:24 36.1 °F /  2.3 °C 32.0 °F /  0 °C 29.55in /  1000.6hPa SW 4.0mph /  6.4km/h 11.0mph /  17.7km/h 85% 0.00in /  0mm
23:29 36.1 °F /  2.3 °C 32.3 °F /  0.2 °C 29.55in /  1000.6hPa West 5.0mph /  8km/h 11.0mph /  17.7km/h 86% 0.00in /  0mm
23:34 35.9 °F /  2.2 °C 32.1 °F /  0.1 °C 29.54in /  1000.2hPa West 4.0mph /  6.4km/h 11.0mph /  17.7km/h 86% 0.00in /  0mm
23:39 35.8 °F /  2.1 °C 32.3 °F /  0.2 °C 29.54in /  1000.2hPa WSW 4.0mph /  6.4km/h 8.0mph /  12.9km/h 87% 0.00in /  0mm
23:44 35.8 °F /  2.1 °C 32.3 °F /  0.2 °C 29.54in /  1000.2hPa WSW 4.0mph /  6.4km/h 8.0mph /  12.9km/h 87% 0.00in /  0mm
23:49 36.1 °F /  2.3 °C 32.6 °F /  0.3 °C 29.54in /  1000.2hPa SW 6.0mph /  9.7km/h 8.0mph /  12.9km/h 87% 0.00in /  0mm
23:54 36.3 °F /  2.4 °C 32.8 °F /  0.4 °C 29.54in /  1000.2hPa WSW 2.0mph /  3.2km/h 9.0mph /  14.5km/h 87% 0.00in /  0mm
23:59 36.3 °F /  2.4 °C 32.8 °F /  0.4 °C 29.53in /  999.9hPa WSW 3.0mph /  4.8km/h 5.0mph /  8km/h 87% 0.00in /  0mm
Buffalo, New York, USA
Compliments of Weather Underground - 2.5 mb